sensor_id;sensor_type;location;lat;lon;timestamp;P1;durP1;ratioP1;P2;durP2;ratioP2
39822;SDS011;25499;53.958;10.970;2022-08-25T06:02:22;12.43;;;8.73;;
39822;SDS011;25499;53.958;10.970;2022-08-25T06:05:08;10.50;;;8.52;;
39822;SDS011;25499;53.958;10.970;2022-08-25T06:07:46;9.75;;;7.82;;
39822;SDS011;25499;53.958;10.970;2022-08-25T06:10:13;10.20;;;7.70;;
39822;SDS011;25499;53.958;10.970;2022-08-25T06:12:40;11.52;;;9.73;;
39822;SDS011;25499;53.958;10.970;2022-08-25T06:15:09;12.82;;;9.95;;
39822;SDS011;25499;53.958;10.970;2022-08-25T06:17:35;12.52;;;9.70;;
39822;SDS011;25499;53.958;10.970;2022-08-25T06:20:05;15.32;;;10.13;;
39822;SDS011;25499;53.958;10.970;2022-08-25T06:22:32;13.45;;;10.20;;
39822;SDS011;25499;53.958;10.970;2022-08-25T06:24:57;13.43;;;8.90;;
39822;SDS011;25499;53.958;10.970;2022-08-25T06:27:22;10.95;;;8.23;;
39822;SDS011;25499;53.958;10.970;2022-08-25T06:29:48;11.00;;;8.52;;
39822;SDS011;25499;53.958;10.970;2022-08-25T06:32:13;8.45;;;7.35;;
39822;SDS011;25499;53.958;10.970;2022-08-25T06:34:39;10.02;;;7.35;;
39822;SDS011;25499;53.958;10.970;2022-08-25T06:37:04;10.43;;;7.85;;
39822;SDS011;25499;53.958;10.970;2022-08-25T06:39:30;9.88;;;7.10;;
39822;SDS011;25499;53.958;10.970;2022-08-25T06:41:55;10.27;;;7.57;;
39822;SDS011;25499;53.958;10.970;2022-08-25T06:44:21;8.05;;;7.15;;
39822;SDS011;25499;53.958;10.970;2022-08-25T06:46:47;6.95;;;6.35;;
39822;SDS011;25499;53.958;10.970;2022-08-25T06:49:13;6.75;;;5.03;;
39822;SDS011;25499;53.958;10.970;2022-08-25T06:51:38;6.45;;;5.00;;
39822;SDS011;25499;53.958;10.970;2022-08-25T06:54:05;5.85;;;4.40;;
39822;SDS011;25499;53.958;10.970;2022-08-25T06:56:33;6.72;;;4.65;;
39822;SDS011;25499;53.958;10.970;2022-08-25T06:59:21;4.80;;;4.30;;
39822;SDS011;25499;53.958;10.970;2022-08-25T07:01:45;7.45;;;4.97;;
39822;SDS011;25499;53.958;10.970;2022-08-25T07:04:11;7.07;;;4.40;;
39822;SDS011;25499;53.958;10.970;2022-08-25T07:06:37;6.70;;;4.82;;
39822;SDS011;25499;53.958;10.970;2022-08-25T07:09:03;8.45;;;4.30;;
39822;SDS011;25499;53.958;10.970;2022-08-25T07:11:31;5.30;;;4.13;;
39822;SDS011;25499;53.958;10.970;2022-08-25T07:13:59;4.43;;;4.03;;
39822;SDS011;25499;53.958;10.970;2022-08-25T07:16:25;5.28;;;4.15;;
39822;SDS011;25499;53.958;10.970;2022-08-25T07:18:52;5.20;;;3.60;;
39822;SDS011;25499;53.958;10.970;2022-08-25T07:21:20;4.00;;;3.67;;
39822;SDS011;25499;53.958;10.970;2022-08-25T07:23:49;4.40;;;3.50;;
39822;SDS011;25499;53.958;10.970;2022-08-25T07:26:22;7.68;;;3.63;;
39822;SDS011;25499;53.958;10.970;2022-08-25T07:28:49;4.72;;;3.25;;
39822;SDS011;25499;53.958;10.970;2022-08-25T07:31:16;3.90;;;3.35;;
39822;SDS011;25499;53.958;10.970;2022-08-25T07:33:41;3.78;;;3.33;;
39822;SDS011;25499;53.958;10.970;2022-08-25T07:36:28;5.18;;;3.28;;
39822;SDS011;25499;53.958;10.970;2022-08-25T07:38:55;5.55;;;3.30;;
39822;SDS011;25499;53.958;10.970;2022-08-25T07:41:21;4.38;;;3.35;;
39822;SDS011;25499;53.958;10.970;2022-08-25T07:43:47;4.65;;;3.70;;
39822;SDS011;25499;53.958;10.970;2022-08-25T07:46:12;6.50;;;3.83;;
39822;SDS011;25499;53.958;10.970;2022-08-25T07:48:38;9.32;;;5.30;;
39822;SDS011;25499;53.958;10.970;2022-08-25T07:51:09;5.90;;;4.30;;
39822;SDS011;25499;53.958;10.970;2022-08-25T07:53:36;6.50;;;3.58;;
39822;SDS011;25499;53.958;10.970;2022-08-25T07:56:07;6.70;;;4.38;;
39822;SDS011;25499;53.958;10.970;2022-08-25T07:58:34;7.40;;;5.28;;
39822;SDS011;25499;53.958;10.970;2022-08-25T08:00:59;8.05;;;4.30;;
39822;SDS011;25499;53.958;10.970;2022-08-25T08:03:25;6.70;;;3.85;;
39822;SDS011;25499;53.958;10.970;2022-08-25T08:05:50;8.13;;;3.65;;
39822;SDS011;25499;53.958;10.970;2022-08-25T08:08:16;6.28;;;3.75;;
39822;SDS011;25499;53.958;10.970;2022-08-25T08:10:41;6.03;;;3.35;;
39822;SDS011;25499;53.958;10.970;2022-08-25T08:13:07;5.82;;;3.13;;
39822;SDS011;25499;53.958;10.970;2022-08-25T08:15:34;7.30;;;3.33;;
39822;SDS011;25499;53.958;10.970;2022-08-25T08:18:01;4.95;;;3.10;;
39822;SDS011;25499;53.958;10.970;2022-08-25T08:20:27;5.50;;;3.58;;
39822;SDS011;25499;53.958;10.970;2022-08-25T08:22:55;5.35;;;3.13;;
39822;SDS011;25499;53.958;10.970;2022-08-25T08:25:21;6.10;;;3.35;;
39822;SDS011;25499;53.958;10.970;2022-08-25T08:27:47;5.03;;;3.20;;
39822;SDS011;25499;53.958;10.970;2022-08-25T08:30:12;7.25;;;4.03;;
39822;SDS011;25499;53.958;10.970;2022-08-25T08:32:38;10.40;;;4.13;;
39822;SDS011;25499;53.958;10.970;2022-08-25T08:35:04;10.10;;;3.35;;
39822;SDS011;25499;53.958;10.970;2022-08-25T08:37:29;5.05;;;3.40;;
39822;SDS011;25499;53.958;10.970;2022-08-25T08:39:55;5.47;;;2.95;;
39822;SDS011;25499;53.958;10.970;2022-08-25T08:55:39;4.38;;;3.10;;
39822;SDS011;25499;53.958;10.970;2022-08-25T08:58:24;5.18;;;3.20;;
39822;SDS011;25499;53.958;10.970;2022-08-25T09:00:58;6.70;;;3.15;;
39822;SDS011;25499;53.958;10.970;2022-08-25T09:03:37;7.70;;;3.40;;
39822;SDS011;25499;53.958;10.970;2022-08-25T09:06:06;4.70;;;3.23;;
39822;SDS011;25499;53.958;10.970;2022-08-25T09:08:36;7.95;;;3.38;;
39822;SDS011;25499;53.958;10.970;2022-08-25T09:17:01;6.63;;;3.42;;
39822;SDS011;25499;53.958;10.970;2022-08-25T09:25:21;6.00;;;2.60;;
39822;SDS011;25499;53.958;10.970;2022-08-25T09:33:43;8.02;;;3.30;;
39822;SDS011;25499;53.958;10.970;2022-08-25T09:36:09;5.32;;;3.03;;
39822;SDS011;25499;53.958;10.970;2022-08-25T09:38:35;7.63;;;2.95;;
39822;SDS011;25499;53.958;10.970;2022-08-25T09:41:02;5.40;;;2.58;;
39822;SDS011;25499;53.958;10.970;2022-08-25T09:43:29;7.78;;;2.70;;
39822;SDS011;25499;53.958;10.970;2022-08-25T09:51:47;6.40;;;2.53;;
39822;SDS011;25499;53.958;10.970;2022-08-25T09:56:52;6.57;;;2.60;;
39822;SDS011;25499;53.958;10.970;2022-08-25T09:59:24;6.65;;;2.40;;
39822;SDS011;25499;53.958;10.970;2022-08-25T10:01:51;4.38;;;2.45;;
39822;SDS011;25499;53.958;10.970;2022-08-25T10:04:29;5.53;;;2.83;;
39822;SDS011;25499;53.958;10.970;2022-08-25T10:06:58;4.97;;;2.50;;
39822;SDS011;25499;53.958;10.970;2022-08-25T10:11:58;6.22;;;2.70;;
39822;SDS011;25499;53.958;10.970;2022-08-25T10:19:52;5.60;;;2.70;;
39822;SDS011;25499;53.958;10.970;2022-08-25T10:22:39;6.93;;;2.42;;
39822;SDS011;25499;53.958;10.970;2022-08-25T10:25:07;8.13;;;2.75;;
39822;SDS011;25499;53.958;10.970;2022-08-25T10:27:38;4.03;;;2.45;;
39822;SDS011;25499;53.958;10.970;2022-08-25T10:32:56;6.80;;;2.67;;
39822;SDS011;25499;53.958;10.970;2022-08-25T10:44:02;4.93;;;2.92;;
39822;SDS011;25499;53.958;10.970;2022-08-25T10:49:45;6.82;;;2.30;;
39822;SDS011;25499;53.958;10.970;2022-08-25T10:52:19;6.85;;;2.67;;
39822;SDS011;25499;53.958;10.970;2022-08-25T10:54:59;7.57;;;3.00;;
39822;SDS011;25499;53.958;10.970;2022-08-25T10:57:35;7.72;;;2.60;;
39822;SDS011;25499;53.958;10.970;2022-08-25T11:00:13;4.80;;;2.80;;
39822;SDS011;25499;53.958;10.970;2022-08-25T11:13:59;5.40;;;2.85;;
39822;SDS011;25499;53.958;10.970;2022-08-25T11:16:35;4.78;;;2.38;;
39822;SDS011;25499;53.958;10.970;2022-08-25T11:19:12;5.22;;;2.95;;
39822;SDS011;25499;53.958;10.970;2022-08-25T11:26:58;5.05;;;3.00;;
39822;SDS011;25499;53.958;10.970;2022-08-25T11:29:25;8.50;;;3.10;;
39822;SDS011;25499;53.958;10.970;2022-08-25T11:31:57;6.90;;;2.90;;
39822;SDS011;25499;53.958;10.970;2022-08-25T11:34:24;7.47;;;3.10;;
39822;SDS011;25499;53.958;10.970;2022-08-25T11:36:52;6.03;;;3.22;;
39822;SDS011;25499;53.958;10.970;2022-08-25T11:42:24;7.57;;;3.42;;
39822;SDS011;25499;53.958;10.970;2022-08-25T11:53:26;5.75;;;2.47;;
39822;SDS011;25499;53.958;10.970;2022-08-25T11:55:57;5.78;;;2.30;;
39822;SDS011;25499;53.958;10.970;2022-08-25T12:01:58;5.60;;;2.35;;
39822;SDS011;25499;53.958;10.970;2022-08-25T12:07:14;5.38;;;2.33;;
39822;SDS011;25499;53.958;10.970;2022-08-25T12:09:29;6.07;;;2.50;;
39822;SDS011;25499;53.958;10.970;2022-08-25T12:11:55;5.30;;;2.40;;
39822;SDS011;25499;53.958;10.970;2022-08-25T12:30:20;5.80;;;2.30;;
39822;SDS011;25499;53.958;10.970;2022-08-25T12:35:57;4.60;;;2.38;;
39822;SDS011;25499;53.958;10.970;2022-08-25T12:38:44;3.58;;;1.90;;
39822;SDS011;25499;53.958;10.970;2022-08-25T12:41:13;5.10;;;2.10;;
39822;SDS011;25499;53.958;10.970;2022-08-25T12:43:44;8.15;;;2.60;;
39822;SDS011;25499;53.958;10.970;2022-08-25T12:56:51;3.45;;;2.00;;
39822;SDS011;25499;53.958;10.970;2022-08-25T12:59:36;3.42;;;2.08;;
39822;SDS011;25499;53.958;10.970;2022-08-25T13:08:19;4.88;;;2.20;;
39822;SDS011;25499;53.958;10.970;2022-08-25T13:10:50;4.70;;;2.53;;
39822;SDS011;25499;53.958;10.970;2022-08-25T13:16:28;9.48;;;2.00;;
39822;SDS011;25499;53.958;10.970;2022-08-25T13:18:55;6.28;;;2.20;;
39822;SDS011;25499;53.958;10.970;2022-08-25T13:23:49;4.90;;;1.97;;
39822;SDS011;25499;53.958;10.970;2022-08-25T13:26:27;5.13;;;2.30;;
39822;SDS011;25499;53.958;10.970;2022-08-25T13:31:24;6.55;;;2.38;;
39822;SDS011;25499;53.958;10.970;2022-08-25T13:33:54;7.07;;;2.22;;
39822;SDS011;25499;53.958;10.970;2022-08-25T13:36:31;4.03;;;2.10;;
39822;SDS011;25499;53.958;10.970;2022-08-25T13:39:20;5.70;;;2.15;;
39822;SDS011;25499;53.958;10.970;2022-08-25T13:41:48;4.45;;;2.20;;
39822;SDS011;25499;53.958;10.970;2022-08-25T13:44:16;6.82;;;2.55;;
39822;SDS011;25499;53.958;10.970;2022-08-25T13:46:43;6.68;;;2.35;;
39822;SDS011;25499;53.958;10.970;2022-08-25T13:49:11;4.85;;;2.33;;
39822;SDS011;25499;53.958;10.970;2022-08-25T13:51:52;5.55;;;2.20;;
39822;SDS011;25499;53.958;10.970;2022-08-25T13:56:48;6.40;;;2.30;;
39822;SDS011;25499;53.958;10.970;2022-08-25T13:59:22;6.07;;;2.10;;
39822;SDS011;25499;53.958;10.970;2022-08-25T14:01:51;5.95;;;2.40;;
39822;SDS011;25499;53.958;10.970;2022-08-25T14:04:23;4.57;;;2.70;;
39822;SDS011;25499;53.958;10.970;2022-08-25T14:10:09;6.78;;;2.53;;
39822;SDS011;25499;53.958;10.970;2022-08-25T14:15:39;6.15;;;2.50;;
39822;SDS011;25499;53.958;10.970;2022-08-25T14:18:07;5.72;;;2.60;;
39822;SDS011;25499;53.958;10.970;2022-08-25T14:20:48;5.68;;;2.40;;
39822;SDS011;25499;53.958;10.970;2022-08-25T14:23:18;6.15;;;2.67;;
39822;SDS011;25499;53.958;10.970;2022-08-25T14:25:48;6.60;;;2.50;;
39822;SDS011;25499;53.958;10.970;2022-08-25T14:28:16;6.15;;;2.30;;
39822;SDS011;25499;53.958;10.970;2022-08-25T14:33:39;7.35;;;2.50;;
39822;SDS011;25499;53.958;10.970;2022-08-25T14:36:12;7.47;;;2.60;;
39822;SDS011;25499;53.958;10.970;2022-08-25T14:38:38;6.65;;;2.30;;
39822;SDS011;25499;53.958;10.970;2022-08-25T14:41:04;6.85;;;2.42;;
39822;SDS011;25499;53.958;10.970;2022-08-25T14:43:30;5.78;;;2.10;;
39822;SDS011;25499;53.958;10.970;2022-08-25T14:45:56;4.80;;;2.45;;
39822;SDS011;25499;53.958;10.970;2022-08-25T14:48:23;6.43;;;2.38;;
39822;SDS011;25499;53.958;10.970;2022-08-25T14:53:18;4.93;;;2.30;;
39822;SDS011;25499;53.958;10.970;2022-08-25T14:55:44;4.82;;;2.30;;
39822;SDS011;25499;53.958;10.970;2022-08-25T14:58:09;11.95;;;2.90;;
39822;SDS011;25499;53.958;10.970;2022-08-25T15:00:36;4.15;;;2.25;;
39822;SDS011;25499;53.958;10.970;2022-08-25T15:03:05;5.22;;;2.30;;
39822;SDS011;25499;53.958;10.970;2022-08-25T15:05:31;7.82;;;2.42;;
39822;SDS011;25499;53.958;10.970;2022-08-25T15:07:56;7.25;;;2.38;;
39822;SDS011;25499;53.958;10.970;2022-08-25T15:10:40;4.57;;;2.40;;
39822;SDS011;25499;53.958;10.970;2022-08-25T15:13:06;4.43;;;2.17;;
39822;SDS011;25499;53.958;10.970;2022-08-25T15:15:33;5.30;;;2.42;;
39822;SDS011;25499;53.958;10.970;2022-08-25T15:18:03;7.55;;;2.40;;
39822;SDS011;25499;53.958;10.970;2022-08-25T15:20:29;10.20;;;2.50;;
39822;SDS011;25499;53.958;10.970;2022-08-25T15:22:54;7.80;;;2.38;;
39822;SDS011;25499;53.958;10.970;2022-08-25T15:25:19;7.13;;;2.28;;
39822;SDS011;25499;53.958;10.970;2022-08-25T15:27:46;5.93;;;2.15;;
39822;SDS011;25499;53.958;10.970;2022-08-25T15:30:12;6.65;;;2.42;;
39822;SDS011;25499;53.958;10.970;2022-08-25T15:32:38;9.43;;;2.65;;
39822;SDS011;25499;53.958;10.970;2022-08-25T15:35:04;5.47;;;2.20;;
39822;SDS011;25499;53.958;10.970;2022-08-25T15:37:30;3.88;;;2.30;;
39822;SDS011;25499;53.958;10.970;2022-08-25T15:39:56;10.45;;;2.70;;
39822;SDS011;25499;53.958;10.970;2022-08-25T15:42:22;7.07;;;2.47;;
39822;SDS011;25499;53.958;10.970;2022-08-25T15:44:49;9.70;;;2.47;;
39822;SDS011;25499;53.958;10.970;2022-08-25T15:47:14;6.40;;;2.60;;
39822;SDS011;25499;53.958;10.970;2022-08-25T15:49:40;8.50;;;2.45;;
39822;SDS011;25499;53.958;10.970;2022-08-25T15:52:07;4.82;;;2.30;;
39822;SDS011;25499;53.958;10.970;2022-08-25T15:54:33;3.42;;;2.20;;
39822;SDS011;25499;53.958;10.970;2022-08-25T15:56:59;6.28;;;2.42;;
39822;SDS011;25499;53.958;10.970;2022-08-25T15:59:24;7.85;;;2.40;;
39822;SDS011;25499;53.958;10.970;2022-08-25T16:01:51;4.70;;;2.50;;
39822;SDS011;25499;53.958;10.970;2022-08-25T16:04:17;10.15;;;2.60;;
39822;SDS011;25499;53.958;10.970;2022-08-25T16:06:43;5.28;;;2.20;;
39822;SDS011;25499;53.958;10.970;2022-08-25T16:09:08;7.35;;;2.45;;
39822;SDS011;25499;53.958;10.970;2022-08-25T16:11:34;5.75;;;2.45;;
39822;SDS011;25499;53.958;10.970;2022-08-25T16:13:59;8.27;;;2.45;;
39822;SDS011;25499;53.958;10.970;2022-08-25T16:16:26;8.70;;;2.53;;
39822;SDS011;25499;53.958;10.970;2022-08-25T16:18:53;8.90;;;2.63;;
39822;SDS011;25499;53.958;10.970;2022-08-25T16:21:20;5.55;;;2.60;;
39822;SDS011;25499;53.958;10.970;2022-08-25T16:23:49;5.40;;;2.65;;
39822;SDS011;25499;53.958;10.970;2022-08-25T16:26:17;10.35;;;2.75;;
39822;SDS011;25499;53.958;10.970;2022-08-25T16:28:42;8.20;;;2.58;;
39822;SDS011;25499;53.958;10.970;2022-08-25T16:31:09;8.55;;;3.10;;
39822;SDS011;25499;53.958;10.970;2022-08-25T16:33:36;9.23;;;2.72;;
39822;SDS011;25499;53.958;10.970;2022-08-25T16:36:08;7.93;;;2.55;;
39822;SDS011;25499;53.958;10.970;2022-08-25T16:38:39;10.82;;;2.90;;
39822;SDS011;25499;53.958;10.970;2022-08-25T16:41:09;10.35;;;2.85;;
39822;SDS011;25499;53.958;10.970;2022-08-25T16:43:36;6.28;;;2.80;;
39822;SDS011;25499;53.958;10.970;2022-08-25T16:46:03;7.20;;;2.75;;
39822;SDS011;25499;53.958;10.970;2022-08-25T16:48:31;8.48;;;2.80;;
39822;SDS011;25499;53.958;10.970;2022-08-25T16:50:56;8.45;;;2.78;;
39822;SDS011;25499;53.958;10.970;2022-08-25T16:53:22;9.43;;;2.60;;
39822;SDS011;25499;53.958;10.970;2022-08-25T16:56:06;8.57;;;2.67;;
39822;SDS011;25499;53.958;10.970;2022-08-25T16:58:32;7.15;;;2.47;;
39822;SDS011;25499;53.958;10.970;2022-08-25T17:01:08;9.95;;;2.63;;
39822;SDS011;25499;53.958;10.970;2022-08-25T17:03:36;7.10;;;2.53;;
39822;SDS011;25499;53.958;10.970;2022-08-25T17:06:03;8.48;;;2.50;;
39822;SDS011;25499;53.958;10.970;2022-08-25T17:08:28;8.55;;;2.75;;
39822;SDS011;25499;53.958;10.970;2022-08-25T17:11:02;8.50;;;2.72;;
39822;SDS011;25499;53.958;10.970;2022-08-25T17:13:33;10.27;;;2.78;;
39822;SDS011;25499;53.958;10.970;2022-08-25T17:15:59;7.18;;;2.72;;
39822;SDS011;25499;53.958;10.970;2022-08-25T17:18:25;5.43;;;2.70;;
39822;SDS011;25499;53.958;10.970;2022-08-25T17:20:59;6.40;;;2.70;;
39822;SDS011;25499;53.958;10.970;2022-08-25T17:23:31;11.50;;;2.80;;
39822;SDS011;25499;53.958;10.970;2022-08-25T17:25:58;6.38;;;2.70;;
39822;SDS011;25499;53.958;10.970;2022-08-25T17:28:23;12.85;;;2.78;;
39822;SDS011;25499;53.958;10.970;2022-08-25T17:30:49;8.52;;;2.67;;
39822;SDS011;25499;53.958;10.970;2022-08-25T17:33:16;10.35;;;2.55;;
39822;SDS011;25499;53.958;10.970;2022-08-25T17:35:42;6.53;;;2.67;;
39822;SDS011;25499;53.958;10.970;2022-08-25T17:38:10;7.03;;;2.60;;
39822;SDS011;25499;53.958;10.970;2022-08-25T17:40:36;7.57;;;2.80;;
39822;SDS011;25499;53.958;10.970;2022-08-25T17:43:02;7.53;;;3.05;;
39822;SDS011;25499;53.958;10.970;2022-08-25T17:45:28;12.32;;;2.83;;
39822;SDS011;25499;53.958;10.970;2022-08-25T17:47:54;7.25;;;2.85;;
39822;SDS011;25499;53.958;10.970;2022-08-25T17:50:20;8.02;;;2.97;;
39822;SDS011;25499;53.958;10.970;2022-08-25T17:52:45;6.22;;;2.83;;
39822;SDS011;25499;53.958;10.970;2022-08-25T17:55:10;8.75;;;2.90;;
39822;SDS011;25499;53.958;10.970;2022-08-25T17:57:36;7.40;;;2.80;;
39822;SDS011;25499;53.958;10.970;2022-08-25T18:00:02;9.20;;;3.03;;
39822;SDS011;25499;53.958;10.970;2022-08-25T18:02:33;5.38;;;2.90;;
39822;SDS011;25499;53.958;10.970;2022-08-25T18:05:00;6.45;;;3.45;;
39822;SDS011;25499;53.958;10.970;2022-08-25T18:07:26;8.68;;;2.58;;
39822;SDS011;25499;53.958;10.970;2022-08-25T18:09:52;8.13;;;3.00;;
39822;SDS011;25499;53.958;10.970;2022-08-25T18:12:18;9.77;;;2.83;;
39822;SDS011;25499;53.958;10.970;2022-08-25T18:14:43;7.15;;;2.90;;
39822;SDS011;25499;53.958;10.970;2022-08-25T18:17:08;9.85;;;3.10;;
39822;SDS011;25499;53.958;10.970;2022-08-25T18:19:33;8.40;;;3.20;;
39822;SDS011;25499;53.958;10.970;2022-08-25T18:21:59;6.97;;;2.88;;
39822;SDS011;25499;53.958;10.970;2022-08-25T18:24:28;6.47;;;3.30;;
39822;SDS011;25499;53.958;10.970;2022-08-25T18:26:53;8.63;;;2.90;;
39822;SDS011;25499;53.958;10.970;2022-08-25T18:29:19;8.13;;;2.90;;
39822;SDS011;25499;53.958;10.970;2022-08-25T18:31:44;7.75;;;2.78;;
39822;SDS011;25499;53.958;10.970;2022-08-25T18:34:09;6.43;;;2.78;;
39822;SDS011;25499;53.958;10.970;2022-08-25T18:36:35;5.88;;;2.83;;
39822;SDS011;25499;53.958;10.970;2022-08-25T18:39:02;6.88;;;2.70;;
39822;SDS011;25499;53.958;10.970;2022-08-25T18:41:46;6.50;;;2.80;;
39822;SDS011;25499;53.958;10.970;2022-08-25T18:44:11;10.85;;;2.92;;
39822;SDS011;25499;53.958;10.970;2022-08-25T18:46:37;6.47;;;3.20;;
39822;SDS011;25499;53.958;10.970;2022-08-25T18:49:03;5.75;;;2.53;;
39822;SDS011;25499;53.958;10.970;2022-08-25T18:51:29;9.48;;;3.05;;
39822;SDS011;25499;53.958;10.970;2022-08-25T18:53:54;9.18;;;3.10;;
39822;SDS011;25499;53.958;10.970;2022-08-25T18:56:19;6.53;;;2.80;;
39822;SDS011;25499;53.958;10.970;2022-08-25T18:58:46;11.60;;;2.80;;
39822;SDS011;25499;53.958;10.970;2022-08-25T19:01:12;6.60;;;2.58;;
39822;SDS011;25499;53.958;10.970;2022-08-25T19:03:38;6.45;;;2.97;;
39822;SDS011;25499;53.958;10.970;2022-08-25T19:06:03;8.38;;;2.88;;
39822;SDS011;25499;53.958;10.970;2022-08-25T19:08:29;7.88;;;2.80;;
39822;SDS011;25499;53.958;10.970;2022-08-25T19:10:55;6.15;;;2.60;;
39822;SDS011;25499;53.958;10.970;2022-08-25T19:13:20;11.13;;;3.50;;
39822;SDS011;25499;53.958;10.970;2022-08-25T19:15:45;8.05;;;2.90;;
39822;SDS011;25499;53.958;10.970;2022-08-25T19:18:11;6.38;;;3.10;;
39822;SDS011;25499;53.958;10.970;2022-08-25T19:20:37;7.20;;;2.78;;
39822;SDS011;25499;53.958;10.970;2022-08-25T19:23:03;7.30;;;2.42;;
39822;SDS011;25499;53.958;10.970;2022-08-25T19:25:29;6.63;;;3.17;;
39822;SDS011;25499;53.958;10.970;2022-08-25T19:27:55;8.52;;;3.17;;
39822;SDS011;25499;53.958;10.970;2022-08-25T19:30:23;9.15;;;2.88;;
39822;SDS011;25499;53.958;10.970;2022-08-25T19:32:50;11.18;;;3.38;;
39822;SDS011;25499;53.958;10.970;2022-08-25T19:35:19;8.15;;;3.42;;
39822;SDS011;25499;53.958;10.970;2022-08-25T19:37:45;7.20;;;3.03;;
39822;SDS011;25499;53.958;10.970;2022-08-25T19:40:11;7.20;;;2.95;;
39822;SDS011;25499;53.958;10.970;2022-08-25T19:42:37;8.18;;;2.80;;
39822;SDS011;25499;53.958;10.970;2022-08-25T19:45:06;11.57;;;3.30;;
39822;SDS011;25499;53.958;10.970;2022-08-25T19:47:35;5.85;;;2.70;;
39822;SDS011;25499;53.958;10.970;2022-08-25T19:50:01;11.98;;;3.40;;
39822;SDS011;25499;53.958;10.970;2022-08-25T19:52:28;5.93;;;2.90;;
39822;SDS011;25499;53.958;10.970;2022-08-25T19:54:53;7.15;;;3.42;;
39822;SDS011;25499;53.958;10.970;2022-08-25T19:57:19;7.80;;;3.42;;
39822;SDS011;25499;53.958;10.970;2022-08-25T19:59:45;6.18;;;3.50;;
39822;SDS011;25499;53.958;10.970;2022-08-25T20:02:13;8.02;;;3.67;;
39822;SDS011;25499;53.958;10.970;2022-08-25T20:04:45;6.03;;;3.83;;
39822;SDS011;25499;53.958;10.970;2022-08-25T20:07:12;7.35;;;3.40;;
39822;SDS011;25499;53.958;10.970;2022-08-25T20:09:37;8.07;;;3.25;;
39822;SDS011;25499;53.958;10.970;2022-08-25T20:12:03;8.23;;;3.22;;
39822;SDS011;25499;53.958;10.970;2022-08-25T20:14:30;6.15;;;3.63;;
39822;SDS011;25499;53.958;10.970;2022-08-25T20:16:57;12.52;;;3.90;;
39822;SDS011;25499;53.958;10.970;2022-08-25T20:19:23;9.70;;;3.47;;
